Time,TemperatureF,DewpointF,PressureIn,WindDirection,WindDirectionDegrees,WindSpeedMPH,WindSpeedGustMPH,Humidity,HourlyPrecipIn,Conditions,Clouds,dailyrainin,SoftwareType,DateUTC
2013-03-01 00:00:00,37.0,27.8,29.83,WSW,255,1.5,4.0,69,0.00,BKN,,0.00,WeatherDisplay:10.37,2013-03-01 05:00:00,
2013-03-01 00:02:00,36.9,27.7,29.83,NW,320,5.0,9.2,69,0.00,BKN,,0.00,WeatherDisplay:10.37,2013-03-01 05:02:00,
2013-03-01 00:07:00,36.9,28.0,29.83,West,276,1.6,6.0,70,0.00,BKN,,0.00,WeatherDisplay:10.37,2013-03-01 05:07:00,
2013-03-01 00:12:00,36.9,28.0,29.82,NW,323,4.8,15.0,70,0.00,BKN,,0.00,WeatherDisplay:10.37,2013-03-01 05:12:00,
2013-03-01 00:14:00,36.9,28.0,29.82,West,267,5.0,0.0,70,0.00,BKN,,0.00,WeatherDisplay:10.37,2013-03-01 05:14:00,
2013-03-01 00:19:00,36.8,28.3,29.82,NW,325,4.0,10.0,71,0.00,OVC,,0.00,WeatherDisplay:10.37,2013-03-01 05:19:00,
2013-03-01 00:24:00,36.8,28.3,29.82,NNW,328,1.0,0.0,71,0.00,OVC,,0.00,WeatherDisplay:10.37,2013-03-01 05:24:00,
2013-03-01 00:30:00,36.8,28.3,29.81,NW,305,3.1,6.0,71,0.00,OVC,,0.00,WeatherDisplay:10.37,2013-03-01 05:30:00,
2013-03-01 00:36:00,36.8,28.3,29.82,West,264,3.1,8.1,71,0.00,OVC,,0.00,WeatherDisplay:10.37,2013-03-01 05:36:00,
2013-03-01 00:41:00,36.8,28.3,29.82,NW,304,1.9,4.6,71,0.00,OVC,,0.00,WeatherDisplay:10.37,2013-03-01 05:41:00,
2013-03-01 00:46:00,36.8,28.3,29.82,North,10,3.2,6.0,71,0.00,OVC,,0.00,WeatherDisplay:10.37,2013-03-01 05:46:00,
2013-03-01 00:51:00,36.8,28.3,29.82,NNW,347,2.9,5.0,71,0.00,OVC,,0.00,WeatherDisplay:10.37,2013-03-01 05:51:00,
2013-03-01 00:56:00,36.8,28.3,29.82,SSW,208,1.2,3.5,71,0.00,OVC,,0.00,WeatherDisplay:10.37,2013-03-01 05:56:00,
2013-03-01 01:01:00,36.8,28.3,29.83,West,264,7.8,14.0,71,0.00,OVC,,0.00,WeatherDisplay:10.37,2013-03-01 06:01:00,
2013-03-01 01:06:00,36.9,28.4,29.82,North,349,3.0,5.8,71,0.00,OVC,,0.00,WeatherDisplay:10.37,2013-03-01 06:06:00,
2013-03-01 01:11:00,36.9,28.4,29.82,NE,39,2.7,6.0,71,0.00,OVC,,0.00,WeatherDisplay:10.37,2013-03-01 06:11:00,
2013-03-01 01:16:00,36.9,28.4,29.82,SSW,204,1.6,10.4,71,0.00,OVC,,0.00,WeatherDisplay:10.37,2013-03-01 06:16:00,
2013-03-01 01:21:00,36.9,28.4,29.82,NNE,18,2.0,5.8,71,0.00,OVC,,0.00,WeatherDisplay:10.37,2013-03-01 06:21:00,
2013-03-01 01:26:00,37.0,28.5,29.82,NW,308,2.9,8.0,71,0.00,OVC,,0.00,WeatherDisplay:10.37,2013-03-01 06:26:00,
2013-03-01 01:31:00,37.1,28.2,29.82,SW,235,3.0,7.0,70,0.00,OVC,,0.00,WeatherDisplay:10.37,2013-03-01 06:31:00,
2013-03-01 01:36:00,37.1,28.2,29.82,SSW,194,2.0,5.8,70,0.00,OVC,,0.00,WeatherDisplay:10.37,2013-03-01 06:36:00,
2013-03-01 01:41:00,37.2,28.3,29.81,NNW,335,2.5,5.8,70,0.00,OVC,,0.00,WeatherDisplay:10.37,2013-03-01 06:41:00,
2013-03-01 01:46:00,37.2,28.3,29.82,NW,322,1.4,5.8,70,0.00,OVC,,0.00,WeatherDisplay:10.37,2013-03-01 06:46:00,
2013-03-01 01:51:00,37.2,28.0,29.81,North,4,3.2,4.6,69,0.00,OVC,,0.00,WeatherDisplay:10.37,2013-03-01 06:51:00,
2013-03-01 01:56:00,37.3,28.1,29.81,West,281,2.1,5.8,69,0.00,OVC,,0.00,WeatherDisplay:10.37,2013-03-01 06:56:00,
2013-03-01 02:01:00,37.3,28.1,29.81,NW,314,1.3,6.9,69,0.00,BKN,,0.00,WeatherDisplay:10.37,2013-03-01 07:01:00,
2013-03-01 02:06:00,37.3,28.1,29.81,North,352,2.9,5.0,69,0.00,BKN,,0.00,WeatherDisplay:10.37,2013-03-01 07:06:00,
2013-03-01 02:11:00,37.3,28.1,29.81,West,264,2.2,6.9,69,0.00,BKN,,0.00,WeatherDisplay:10.37,2013-03-01 07:11:00,
2013-03-01 02:16:00,37.4,28.2,29.80,WSW,253,2.1,3.5,69,0.00,BKN,,0.00,WeatherDisplay:10.37,2013-03-01 07:16:00,
2013-03-01 02:21:00,37.4,27.8,29.80,West,266,3.9,6.0,68,0.00,BKN,,0.00,WeatherDisplay:10.37,2013-03-01 07:21:00,
2013-03-01 02:26:00,37.5,27.9,29.80,NNW,338,2.5,4.0,68,0.00,BKN,,0.00,WeatherDisplay:10.37,2013-03-01 07:26:00,
2013-03-01 02:31:00,37.5,27.5,29.80,NW,308,2.4,8.1,67,0.00,BKN,,0.00,WeatherDisplay:10.37,2013-03-01 07:31:00,
2013-03-01 02:36:00,37.5,27.5,29.80,West,278,1.4,5.8,67,0.00,BKN,,0.00,WeatherDisplay:10.37,2013-03-01 07:36:00,
2013-03-01 02:41:00,37.6,27.6,29.80,NNE,15,3.1,6.0,67,0.00,BKN,,0.00,WeatherDisplay:10.37,2013-03-01 07:41:00,
2013-03-01 02:46:00,37.6,27.3,29.80,WSW,238,2.2,11.5,66,0.00,BKN,,0.00,WeatherDisplay:10.37,2013-03-01 07:46:00,
2013-03-01 02:51:00,37.5,27.5,29.80,ENE,62,1.0,3.5,67,0.00,BKN,,0.00,WeatherDisplay:10.37,2013-03-01 07:51:00,
2013-03-01 02:56:00,37.3,27.3,29.80,West,274,1.1,3.0,67,0.00,BKN,,0.00,WeatherDisplay:10.37,2013-03-01 07:56:00,
2013-03-01 03:01:00,37.1,27.2,29.80,West,259,3.3,7.0,67,0.00,BKN,,0.00,WeatherDisplay:10.37,2013-03-01 08:01:00,
2013-03-01 03:06:00,37.0,27.4,29.80,West,270,2.6,6.0,68,0.00,BKN,,0.00,WeatherDisplay:10.37,2013-03-01 08:06:00,
2013-03-01 03:11:00,36.9,27.0,29.80,WNW,298,1.7,4.6,67,0.00,BKN,,0.00,WeatherDisplay:10.37,2013-03-01 08:11:00,
2013-03-01 03:17:00,36.9,27.0,29.80,WNW,300,0.8,3.5,67,0.00,BKN,,0.00,WeatherDisplay:10.37,2013-03-01 08:17:00,
2013-03-01 03:22:00,36.9,27.0,29.80,NW,321,0.3,2.3,67,0.00,BKN,,0.00,WeatherDisplay:10.37,2013-03-01 08:22:00,
2013-03-01 03:27:00,36.8,26.9,29.80,NW,305,2.0,5.0,67,0.00,BKN,,0.00,WeatherDisplay:10.37,2013-03-01 08:27:00,
2013-03-01 03:32:00,36.8,26.9,29.80,NNW,328,2.6,5.0,67,0.00,BKN,,0.00,WeatherDisplay:10.37,2013-03-01 08:32:00,
2013-03-01 03:37:00,36.9,27.0,29.80,NW,323,0.4,3.5,67,0.00,BKN,,0.00,WeatherDisplay:10.37,2013-03-01 08:37:00,
2013-03-01 03:42:00,37.0,27.1,29.80,WSW,243,2.0,5.8,67,0.00,BKN,,0.00,WeatherDisplay:10.37,2013-03-01 08:42:00,
2013-03-01 03:47:00,37.2,26.9,29.80,NW,321,1.5,6.9,66,0.00,BKN,,0.00,WeatherDisplay:10.37,2013-03-01 08:47:00,
2013-03-01 03:52:00,37.4,27.1,29.80,SW,229,2.1,4.0,66,0.00,BKN,,0.00,WeatherDisplay:10.37,2013-03-01 08:52:00,
2013-03-01 03:57:00,37.5,26.8,29.80,SW,225,2.9,6.9,65,0.00,BKN,,0.00,WeatherDisplay:10.37,2013-03-01 08:57:00,
2013-03-01 04:02:00,37.5,26.8,29.80,NNE,13,0.8,3.5,65,0.00,OVC,,0.00,WeatherDisplay:10.37,2013-03-01 09:02:00,
2013-03-01 04:07:00,37.5,26.8,29.80,SW,232,3.9,6.9,65,0.00,OVC,,0.00,WeatherDisplay:10.37,2013-03-01 09:07:00,
2013-03-01 04:12:00,37.5,26.8,29.80,SW,235,2.3,4.0,65,0.00,OVC,,0.00,WeatherDisplay:10.37,2013-03-01 09:12:00,
2013-03-01 04:17:00,37.6,27.3,29.81,SSW,207,0.2,2.3,66,0.00,OVC,,0.00,WeatherDisplay:10.37,2013-03-01 09:17:00,
2013-03-01 04:22:00,37.7,27.0,29.80,NNW,337,1.5,3.5,65,0.00,OVC,,0.00,WeatherDisplay:10.37,2013-03-01 09:22:00,
2013-03-01 04:27:00,37.7,27.0,29.80,NW,321,1.0,3.0,65,0.00,OVC,,0.00,WeatherDisplay:10.37,2013-03-01 09:27:00,
2013-03-01 04:32:00,37.7,27.0,29.81,NNW,328,0.3,2.3,65,0.00,OVC,,0.00,WeatherDisplay:10.37,2013-03-01 09:32:00,
2013-03-01 04:37:00,37.7,27.0,29.81,West,280,0.7,3.5,65,0.00,OVC,,0.00,WeatherDisplay:10.37,2013-03-01 09:37:00,
2013-03-01 04:42:00,37.7,27.0,29.81,West,269,0.3,2.3,65,0.00,OVC,,0.00,WeatherDisplay:10.37,2013-03-01 09:42:00,
2013-03-01 04:47:00,37.7,27.0,29.81,North,8,0.5,3.5,65,0.00,OVC,,0.00,WeatherDisplay:10.37,2013-03-01 09:47:00,
2013-03-01 04:53:00,37.7,27.0,29.81,West,276,0.9,4.6,65,0.00,OVC,,0.00,WeatherDisplay:10.37,2013-03-01 09:53:00,
2013-03-01 04:59:00,37.7,27.0,29.81,WSW,248,0.1,1.1,65,0.00,OVC,,0.00,WeatherDisplay:10.37,2013-03-01 09:59:00,
2013-03-01 05:04:00,37.6,27.3,29.81,SSE,167,0.0,1.1,66,0.00,OVC,,0.00,WeatherDisplay:10.37,2013-03-01 10:04:00,
2013-03-01 05:09:00,37.6,26.9,29.81,East,84,1.3,3.5,65,0.00,OVC,,0.00,WeatherDisplay:10.37,2013-03-01 10:09:00,
2013-03-01 05:14:00,37.7,26.6,29.81,NNW,335,2.0,0.0,64,0.00,OVC,,0.00,WeatherDisplay:10.37,2013-03-01 10:14:00,
2013-03-01 05:19:00,37.8,26.3,29.81,NNW,334,3.0,0.0,63,0.00,OVC,,0.00,WeatherDisplay:10.37,2013-03-01 10:19:00,
2013-03-01 05:24:00,37.9,26.8,29.81,NNW,328,3.0,0.0,64,0.00,OVC,,0.00,WeatherDisplay:10.37,2013-03-01 10:24:00,
2013-03-01 05:29:00,37.9,27.2,29.82,NW,326,0.0,0.0,65,0.00,OVC,,0.00,WeatherDisplay:10.37,2013-03-01 10:29:00,
2013-03-01 05:34:00,37.9,26.8,29.82,NW,318,1.0,0.0,64,0.00,OVC,,0.00,WeatherDisplay:10.37,2013-03-01 10:34:00,
2013-03-01 05:39:00,37.9,27.2,29.82,WNW,291,0.0,0.0,65,0.00,OVC,,0.00,WeatherDisplay:10.37,2013-03-01 10:39:00,
2013-03-01 05:44:00,37.8,27.1,29.82,WNW,292,0.0,0.0,65,0.00,OVC,,0.00,WeatherDisplay:10.37,2013-03-01 10:44:00,
2013-03-01 05:50:00,37.7,26.6,29.82,West,276,0.1,1.1,64,0.00,OVC,,0.00,WeatherDisplay:10.37,2013-03-01 10:50:00,
2013-03-01 05:55:00,37.7,27.0,29.83,NNW,337,0.2,1.1,65,0.00,OVC,,0.00,WeatherDisplay:10.37,2013-03-01 10:55:00,
2013-03-01 06:00:00,37.7,27.0,29.83,North,354,0.4,3.5,65,0.00,OVC,,0.00,WeatherDisplay:10.37,2013-03-01 11:00:00,
2013-03-01 06:06:00,37.7,27.0,29.83,WNW,295,0.2,1.1,65,0.00,OVC,,0.00,WeatherDisplay:10.37,2013-03-01 11:06:00,
2013-03-01 06:11:00,37.7,26.6,29.83,SW,231,1.7,3.5,64,0.00,OVC,,0.00,WeatherDisplay:10.37,2013-03-01 11:11:00,
2013-03-01 06:16:00,37.7,26.6,29.83,SSW,208,1.8,3.5,64,0.00,OVC,,0.00,WeatherDisplay:10.37,2013-03-01 11:16:00,
2013-03-01 06:21:00,37.8,26.3,29.83,SW,233,1.1,2.3,63,0.00,OVC,,0.00,WeatherDisplay:10.37,2013-03-01 11:21:00,
2013-03-01 06:27:00,37.9,26.0,29.83,SW,226,3.0,6.0,62,0.00,OVC,,0.00,WeatherDisplay:10.37,2013-03-01 11:27:00,
2013-03-01 06:32:00,37.9,26.4,29.84,SSW,201,1.7,3.5,63,0.00,OVC,,0.00,WeatherDisplay:10.37,2013-03-01 11:32:00,
2013-03-01 06:37:00,37.9,26.4,29.84,WSW,255,0.2,3.5,63,0.00,OVC,,0.00,WeatherDisplay:10.37,2013-03-01 11:37:00,
2013-03-01 06:42:00,37.8,26.7,29.84,West,280,1.8,4.0,64,0.00,OVC,,0.00,WeatherDisplay:10.37,2013-03-01 11:42:00,
2013-03-01 06:48:00,37.8,26.3,29.84,West,271,0.4,3.5,63,0.00,OVC,,0.00,WeatherDisplay:10.37,2013-03-01 11:48:00,
2013-03-01 06:53:00,37.8,26.3,29.84,West,266,0.1,1.1,63,0.00,OVC,,0.00,WeatherDisplay:10.37,2013-03-01 11:53:00,
2013-03-01 06:58:00,37.8,25.9,29.84,WSW,247,3.2,6.0,62,0.00,OVC,,0.00,WeatherDisplay:10.37,2013-03-01 11:58:00,
2013-03-01 07:03:00,37.9,26.4,29.85,WSW,239,0.6,2.3,63,0.00,OVC,,0.00,WeatherDisplay:10.37,2013-03-01 12:03:00,
2013-03-01 07:08:00,37.9,26.4,29.85,West,262,0.2,1.1,63,0.00,OVC,,0.00,WeatherDisplay:10.37,2013-03-01 12:08:00,
2013-03-01 07:13:00,37.9,26.4,29.85,SW,235,2.4,5.0,63,0.00,OVC,,0.00,WeatherDisplay:10.37,2013-03-01 12:13:00,
2013-03-01 07:18:00,37.9,26.4,29.85,SSW,207,4.9,6.0,63,0.00,OVC,,0.00,WeatherDisplay:10.37,2013-03-01 12:18:00,
2013-03-01 07:23:00,38.0,26.5,29.85,West,263,3.4,8.0,63,0.00,OVC,,0.00,WeatherDisplay:10.37,2013-03-01 12:23:00,
2013-03-01 07:28:00,38.0,26.5,29.85,SW,229,2.3,7.0,63,0.00,OVC,,0.00,WeatherDisplay:10.37,2013-03-01 12:28:00,
2013-03-01 07:33:00,37.9,26.8,29.85,SW,236,0.2,3.5,64,0.00,OVC,,0.00,WeatherDisplay:10.37,2013-03-01 12:33:00,
2013-03-01 07:38:00,37.9,27.2,29.85,WSW,239,0.9,4.0,65,0.00,OVC,,0.00,WeatherDisplay:10.37,2013-03-01 12:38:00,
2013-03-01 07:43:00,37.9,26.8,29.85,West,271,0.7,2.3,64,0.00,OVC,,0.00,WeatherDisplay:10.37,2013-03-01 12:43:00,
2013-03-01 07:49:00,37.8,27.1,29.85,NW,316,1.0,3.5,65,0.00,OVC,,0.00,WeatherDisplay:10.37,2013-03-01 12:49:00,
2013-03-01 07:54:00,37.7,27.0,29.85,NW,320,1.4,5.8,65,0.00,OVC,,0.00,WeatherDisplay:10.37,2013-03-01 12:54:00,
2013-03-01 07:59:00,37.7,27.0,29.85,NW,305,0.7,3.5,65,0.00,OVC,,0.00,WeatherDisplay:10.37,2013-03-01 12:59:00,
2013-03-01 08:04:00,37.7,27.4,29.85,SW,233,1.4,6.9,66,0.00,OVC,,0.00,WeatherDisplay:10.37,2013-03-01 13:04:00,
2013-03-01 08:09:00,37.7,27.4,29.85,NW,308,0.3,2.0,66,0.00,OVC,,0.00,WeatherDisplay:10.37,2013-03-01 13:09:00,
2013-03-01 08:14:00,37.6,27.3,29.86,WSW,238,1.0,2.3,66,0.00,OVC,,0.00,WeatherDisplay:10.37,2013-03-01 13:14:00,
2013-03-01 08:19:00,37.6,27.3,29.86,SW,232,0.6,3.5,66,0.00,OVC,,0.00,WeatherDisplay:10.37,2013-03-01 13:19:00,
2013-03-01 08:24:00,37.6,27.3,29.86,SW,217,4.0,7.0,66,0.00,OVC,,0.00,WeatherDisplay:10.37,2013-03-01 13:24:00,
2013-03-01 08:29:00,37.6,27.6,29.86,West,259,1.0,0.0,67,0.00,OVC,,0.00,WeatherDisplay:10.37,2013-03-01 13:29:00,
2013-03-01 08:34:00,37.5,27.5,29.86,WNW,301,2.0,0.0,67,0.00,OVC,,0.00,WeatherDisplay:10.37,2013-03-01 13:34:00,
2013-03-01 08:39:00,37.5,27.5,29.85,NW,304,1.0,0.0,67,0.00,OVC,,0.00,WeatherDisplay:10.37,2013-03-01 13:39:00,
2013-03-01 08:44:00,37.5,27.5,29.85,West,276,1.0,0.0,67,0.00,OVC,,0.00,WeatherDisplay:10.37,2013-03-01 13:44:00,
2013-03-01 08:50:00,37.5,27.5,29.86,WSW,247,1.0,0.0,67,0.00,OVC,,0.00,WeatherDisplay:10.37,2013-03-01 13:50:00,
2013-03-01 08:55:00,37.6,27.6,29.86,SW,232,0.4,3.5,67,0.00,OVC,,0.00,WeatherDisplay:10.37,2013-03-01 13:55:00,
2013-03-01 09:00:00,37.6,27.6,29.86,NNW,335,1.4,3.5,67,0.00,OVC,,0.00,WeatherDisplay:10.37,2013-03-01 14:00:00,
2013-03-01 09:05:00,37.6,27.6,29.86,WNW,282,1.4,3.5,67,0.00,OVC,,0.00,WeatherDisplay:10.37,2013-03-01 14:05:00,
2013-03-01 09:11:00,37.6,27.6,29.86,WSW,246,1.5,3.5,67,0.00,OVC,,0.00,WeatherDisplay:10.37,2013-03-01 14:11:00,
2013-03-01 09:16:00,37.6,27.6,29.86,WSW,246,0.9,3.0,67,0.00,OVC,,0.00,WeatherDisplay:10.37,2013-03-01 14:16:00,
2013-03-01 09:21:00,37.7,27.7,29.86,WNW,298,1.5,3.5,67,0.00,OVC,,0.00,WeatherDisplay:10.37,2013-03-01 14:21:00,
2013-03-01 09:26:00,37.7,27.7,29.86,WSW,240,0.8,4.0,67,0.00,OVC,,0.00,WeatherDisplay:10.37,2013-03-01 14:26:00,
2013-03-01 09:31:00,37.7,27.7,29.86,NW,308,1.1,2.3,67,0.00,OVC,,0.00,WeatherDisplay:10.37,2013-03-01 14:31:00,
2013-03-01 09:36:00,37.7,27.7,29.86,North,352,0.5,3.5,67,0.00,OVC,,0.00,WeatherDisplay:10.37,2013-03-01 14:36:00,
2013-03-01 09:41:00,37.8,27.5,29.86,North,355,1.6,3.5,66,0.00,OVC,,0.00,WeatherDisplay:10.37,2013-03-01 14:41:00,
2013-03-01 09:46:00,37.8,27.1,29.87,West,266,2.1,4.6,65,0.00,OVC,,0.00,WeatherDisplay:10.37,2013-03-01 14:46:00,
2013-03-01 09:51:00,37.9,27.2,29.87,South,174,2.6,6.9,65,0.00,OVC,,0.00,WeatherDisplay:10.37,2013-03-01 14:51:00,
2013-03-01 09:56:00,38.0,27.3,29.87,SW,214,1.5,3.5,65,0.00,OVC,,0.00,WeatherDisplay:10.37,2013-03-01 14:56:00,
2013-03-01 10:01:00,38.1,27.4,29.87,NNW,343,1.2,3.5,65,0.00,OVC,,0.00,WeatherDisplay:10.37,2013-03-01 15:01:00,
2013-03-01 10:06:00,38.1,27.4,29.87,WSW,257,1.4,3.5,65,0.00,OVC,,0.00,WeatherDisplay:10.37,2013-03-01 15:06:00,
2013-03-01 10:12:00,38.2,27.1,29.87,WNW,297,0.4,3.5,64,0.00,OVC,,0.00,WeatherDisplay:10.37,2013-03-01 15:12:00,
2013-03-01 10:17:00,38.3,27.2,29.87,West,264,1.6,5.0,64,0.00,OVC,,0.00,WeatherDisplay:10.37,2013-03-01 15:17:00,
2013-03-01 10:23:00,38.4,27.3,29.87,West,273,2.3,5.0,64,0.00,OVC,,0.00,WeatherDisplay:10.37,2013-03-01 15:23:00,
2013-03-01 10:28:00,38.5,27.0,29.87,WSW,250,1.4,7.0,63,0.00,OVC,,0.00,WeatherDisplay:10.37,2013-03-01 15:28:00,
2013-03-01 10:33:00,38.5,27.4,29.87,NNW,328,0.7,2.3,64,0.00,OVC,,0.00,WeatherDisplay:10.37,2013-03-01 15:33:00,
2013-03-01 10:38:00,38.5,27.0,29.87,WSW,258,3.6,7.0,63,0.00,OVC,,0.00,WeatherDisplay:10.37,2013-03-01 15:38:00,
2013-03-01 10:43:00,38.5,27.4,29.87,NW,321,2.8,8.1,64,0.00,OVC,,0.00,WeatherDisplay:10.37,2013-03-01 15:43:00,
2013-03-01 10:48:00,38.5,27.0,29.87,West,270,1.9,5.8,63,0.00,OVC,,0.00,WeatherDisplay:10.37,2013-03-01 15:48:00,
2013-03-01 10:53:00,38.7,27.6,29.87,WNW,285,0.2,2.3,64,0.00,OVC,,0.00,WeatherDisplay:10.37,2013-03-01 15:53:00,
2013-03-01 10:58:00,38.9,27.4,29.87,SSW,203,2.2,7.0,63,0.00,OVC,,0.00,WeatherDisplay:10.37,2013-03-01 15:58:00,
2013-03-01 11:03:00,39.0,27.5,29.87,WSW,252,0.3,2.3,63,0.00,OVC,,0.00,WeatherDisplay:10.37,2013-03-01 16:03:00,
2013-03-01 11:08:00,39.3,27.4,29.87,WNW,301,1.3,3.5,62,0.00,OVC,,0.00,WeatherDisplay:10.37,2013-03-01 16:08:00,
2013-03-01 11:13:00,39.4,27.5,29.87,West,267,1.0,5.8,62,0.00,OVC,,0.00,WeatherDisplay:10.37,2013-03-01 16:13:00,
2013-03-01 11:18:00,39.3,27.0,29.86,NNW,345,1.6,6.0,61,0.00,OVC,,0.00,WeatherDisplay:10.37,2013-03-01 16:18:00,
2013-03-01 11:23:00,39.1,26.8,29.87,West,276,2.7,6.0,61,0.00,OVC,,0.00,WeatherDisplay:10.37,2013-03-01 16:23:00,
2013-03-01 11:29:00,38.9,27.0,29.86,WNW,294,3.9,8.1,62,0.00,OVC,,0.00,WeatherDisplay:10.37,2013-03-01 16:29:00,
2013-03-01 11:34:00,39.1,26.8,29.87,SSW,211,3.5,8.1,61,0.00,OVC,,0.00,WeatherDisplay:10.37,2013-03-01 16:34:00,
2013-03-01 11:39:00,39.0,26.7,29.87,North,349,1.0,0.0,61,0.00,OVC,,0.00,WeatherDisplay:10.37,2013-03-01 16:39:00,
2013-03-01 11:44:00,39.3,27.0,29.87,WNW,291,3.0,0.0,61,0.00,OVC,,0.00,WeatherDisplay:10.37,2013-03-01 16:44:00,
2013-03-01 11:49:00,39.3,27.0,29.87,West,274,3.0,0.0,61,0.00,OVC,,0.00,WeatherDisplay:10.37,2013-03-01 16:49:00,
2013-03-01 11:55:00,39.1,26.8,29.87,West,276,1.7,4.6,61,0.00,OVC,,0.00,WeatherDisplay:10.37,2013-03-01 16:55:00,
2013-03-01 12:00:00,39.0,27.1,29.87,NW,308,3.1,6.9,62,0.00,OVC,,0.00,WeatherDisplay:10.37,2013-03-01 17:00:00,
2013-03-01 12:05:00,38.9,27.0,29.87,NW,305,2.7,5.0,62,0.00,OVC,,0.00,WeatherDisplay:10.37,2013-03-01 17:05:00,
2013-03-01 12:11:00,38.9,27.4,29.87,NNW,347,1.6,3.0,63,0.00,OVC,,0.00,WeatherDisplay:10.37,2013-03-01 17:11:00,
2013-03-01 12:16:00,38.9,27.4,29.87,NNE,20,2.7,4.0,63,0.00,OVC,,0.00,WeatherDisplay:10.37,2013-03-01 17:16:00,
2013-03-01 12:21:00,38.9,27.4,29.87,NNW,335,2.1,5.8,63,0.00,OVC,,0.00,WeatherDisplay:10.37,2013-03-01 17:21:00,
2013-03-01 12:26:00,38.8,27.3,29.87,NNW,333,2.8,5.0,63,0.00,OVC,,0.00,WeatherDisplay:10.37,2013-03-01 17:26:00,
2013-03-01 12:32:00,38.9,27.4,29.86,West,278,1.3,4.0,63,0.00,OVC,,0.00,WeatherDisplay:10.37,2013-03-01 17:32:00,
2013-03-01 12:37:00,39.0,27.1,29.87,North,354,2.1,3.5,62,0.00,OVC,,0.00,WeatherDisplay:10.37,2013-03-01 17:37:00,
2013-03-01 12:42:00,39.1,26.8,29.86,SW,231,1.3,3.5,61,0.00,OVC,,0.00,WeatherDisplay:10.37,2013-03-01 17:42:00,
2013-03-01 12:47:00,39.3,26.6,29.86,NNE,25,1.6,4.0,60,0.00,OVC,,0.00,WeatherDisplay:10.37,2013-03-01 17:47:00,
2013-03-01 12:52:00,39.4,26.7,29.86,West,281,1.8,6.9,60,0.00,OVC,,0.00,WeatherDisplay:10.37,2013-03-01 17:52:00,
2013-03-01 12:57:00,39.5,27.2,29.86,SW,229,4.8,10.0,61,0.00,OVC,,0.00,WeatherDisplay:10.37,2013-03-01 17:57:00,
2013-03-01 13:02:00,39.5,26.8,29.85,WSW,256,3.6,8.1,60,0.00,OVC,,0.00,WeatherDisplay:10.37,2013-03-01 18:02:00,
2013-03-01 13:07:00,39.9,26.7,29.85,NW,308,2.6,7.0,59,0.00,OVC,,0.00,WeatherDisplay:10.37,2013-03-01 18:07:00,
2013-03-01 13:13:00,39.9,25.9,29.85,NNW,344,4.0,9.2,57,0.00,OVC,,0.00,WeatherDisplay:10.37,2013-03-01 18:13:00,
2013-03-01 13:18:00,39.8,26.2,29.85,WSW,243,3.8,9.0,58,0.00,OVC,,0.00,WeatherDisplay:10.37,2013-03-01 18:18:00,
2013-03-01 13:23:00,39.9,26.3,29.85,NNE,26,2.3,4.6,58,0.00,OVC,,0.00,WeatherDisplay:10.37,2013-03-01 18:23:00,
2013-03-01 13:28:00,39.8,26.6,29.85,North,359,2.9,5.8,59,0.00,OVC,,0.00,WeatherDisplay:10.37,2013-03-01 18:28:00,
2013-03-01 13:33:00,39.7,26.5,29.85,North,9,1.4,6.9,59,0.00,OVC,,0.00,WeatherDisplay:10.37,2013-03-01 18:33:00,
2013-03-01 13:38:00,39.8,27.0,29.85,NW,308,2.5,5.0,60,0.00,OVC,,0.00,WeatherDisplay:10.37,2013-03-01 18:38:00,
2013-03-01 13:43:00,39.6,26.8,29.84,WNW,300,1.1,3.0,60,0.00,OVC,,0.00,WeatherDisplay:10.37,2013-03-01 18:43:00,
2013-03-01 13:48:00,39.7,26.9,29.84,NNE,27,2.8,4.6,60,0.00,OVC,,0.00,WeatherDisplay:10.37,2013-03-01 18:48:00,
2013-03-01 13:53:00,39.5,26.8,29.84,NNW,342,1.5,3.5,60,0.00,OVC,,0.00,WeatherDisplay:10.37,2013-03-01 18:53:00,
2013-03-01 13:59:00,39.5,27.2,29.84,NW,304,1.4,3.0,61,0.00,OVC,,0.00,WeatherDisplay:10.37,2013-03-01 18:59:00,
2013-03-01 14:04:00,39.5,27.5,29.84,NNW,333,0.4,1.1,62,0.00,OVC,,0.00,WeatherDisplay:10.37,2013-03-01 19:04:00,
2013-03-01 14:09:00,39.6,27.2,29.84,North,359,3.2,5.0,61,0.00,OVC,,0.00,WeatherDisplay:10.37,2013-03-01 19:09:00,
2013-03-01 14:14:00,39.5,27.5,29.84,NNW,339,1.3,2.3,62,0.00,OVC,,0.00,WeatherDisplay:10.37,2013-03-01 19:14:00,
2013-03-01 14:19:00,39.5,27.5,29.84,NNE,13,0.4,2.3,62,0.00,OVC,,0.00,WeatherDisplay:10.37,2013-03-01 19:19:00,
2013-03-01 14:24:00,39.5,27.5,29.84,NNE,18,1.2,4.6,62,0.00,OVC,,0.00,WeatherDisplay:10.37,2013-03-01 19:24:00,
2013-03-01 14:29:00,39.4,27.5,29.84,NNW,343,0.9,3.5,62,0.00,OVC,,0.00,WeatherDisplay:10.37,2013-03-01 19:29:00,
2013-03-01 14:34:00,39.3,27.0,29.84,NW,309,1.7,6.9,61,0.00,OVC,,0.00,WeatherDisplay:10.37,2013-03-01 19:34:00,
2013-03-01 14:39:00,39.3,27.0,29.84,NW,322,1.3,5.8,61,0.00,OVC,,0.00,WeatherDisplay:10.37,2013-03-01 19:39:00,
2013-03-01 14:44:00,39.3,27.4,29.84,ENE,72,2.2,3.5,62,0.00,OVC,,0.00,WeatherDisplay:10.37,2013-03-01 19:44:00,
2013-03-01 14:49:00,39.3,27.4,29.84,NNE,18,1.8,5.8,62,0.00,OVC,,0.00,WeatherDisplay:10.37,2013-03-01 19:49:00,
2013-03-01 14:54:00,39.3,27.0,29.84,NW,325,3.1,5.8,61,0.00,OVC,,0.00,WeatherDisplay:10.37,2013-03-01 19:54:00,
2013-03-01 14:59:00,39.1,27.2,29.84,NNW,335,2.6,4.6,62,0.00,OVC,,0.00,WeatherDisplay:10.37,2013-03-01 19:59:00,
2013-03-01 15:04:00,39.0,27.1,29.84,NNW,337,1.9,3.5,62,0.00,OVC,,0.00,WeatherDisplay:10.37,2013-03-01 20:04:00,
2013-03-01 15:09:00,38.9,27.4,29.84,NNW,333,1.9,4.6,63,0.00,OVC,,0.00,WeatherDisplay:10.37,2013-03-01 20:09:00,
2013-03-01 15:14:00,38.9,27.4,29.84,NNW,327,4.1,6.0,63,0.00,OVC,,0.00,WeatherDisplay:10.37,2013-03-01 20:14:00,
2013-03-01 15:19:00,38.9,27.4,29.84,NW,315,1.6,4.6,63,0.00,OVC,,0.00,WeatherDisplay:10.37,2013-03-01 20:19:00,
2013-03-01 15:24:00,38.9,27.0,29.84,NW,304,1.6,5.8,62,0.00,OVC,,0.00,WeatherDisplay:10.37,2013-03-01 20:24:00,
2013-03-01 15:29:00,38.9,27.0,29.84,NW,325,1.8,3.5,62,0.00,OVC,,0.00,WeatherDisplay:10.37,2013-03-01 20:29:00,
2013-03-01 15:34:00,38.9,27.0,29.84,NW,325,2.9,5.0,62,0.00,OVC,,0.00,WeatherDisplay:10.37,2013-03-01 20:34:00,
2013-03-01 15:39:00,39.0,27.1,29.84,NW,325,1.0,3.5,62,0.00,OVC,,0.00,WeatherDisplay:10.37,2013-03-01 20:39:00,
2013-03-01 15:44:00,39.1,26.4,29.84,West,267,2.5,5.0,60,0.00,OVC,,0.00,WeatherDisplay:10.37,2013-03-01 20:44:00,
2013-03-01 15:49:00,39.1,26.4,29.84,WNW,300,1.1,8.1,60,0.00,OVC,,0.00,WeatherDisplay:10.37,2013-03-01 20:49:00,
2013-03-01 15:54:00,39.1,26.4,29.84,NW,307,1.0,0.0,60,0.00,OVC,,0.00,WeatherDisplay:10.37,2013-03-01 20:54:00,
2013-03-01 15:59:00,39.1,26.4,29.85,NW,319,2.0,0.0,60,0.00,OVC,,0.00,WeatherDisplay:10.37,2013-03-01 20:59:00,
2013-03-01 16:04:00,38.9,26.2,29.84,NNW,330,1.0,0.0,60,0.00,OVC,,0.00,WeatherDisplay:10.37,2013-03-01 21:04:00,
2013-03-01 16:09:00,38.8,26.1,29.85,NNW,341,2.0,0.0,60,0.00,OVC,,0.00,WeatherDisplay:10.37,2013-03-01 21:09:00,
2013-03-01 16:14:00,38.7,26.0,29.85,NW,306,2.0,0.0,60,0.00,OVC,,0.00,WeatherDisplay:10.37,2013-03-01 21:14:00,
2013-03-01 16:19:00,38.7,26.0,29.85,WNW,286,1.0,0.0,60,0.00,OVC,,0.00,WeatherDisplay:10.37,2013-03-01 21:19:00,
2013-03-01 16:24:00,38.6,25.1,29.85,NW,312,3.0,0.0,58,0.00,OVC,,0.00,WeatherDisplay:10.37,2013-03-01 21:24:00,
2013-03-01 16:29:00,38.6,25.5,29.85,NW,308,2.0,0.0,59,0.00,OVC,,0.00,WeatherDisplay:10.37,2013-03-01 21:29:00,
2013-03-01 16:35:00,38.5,25.4,29.85,NW,315,4.1,7.0,59,0.00,OVC,,0.00,WeatherDisplay:10.37,2013-03-01 21:35:00,
2013-03-01 16:40:00,38.4,25.3,29.85,North,349,2.5,5.8,59,0.00,OVC,,0.00,WeatherDisplay:10.37,2013-03-01 21:40:00,
2013-03-01 16:45:00,38.3,25.2,29.85,NNW,340,2.6,4.6,59,0.00,OVC,,0.00,WeatherDisplay:10.37,2013-03-01 21:45:00,
2013-03-01 16:50:00,38.1,25.0,29.85,NW,323,3.8,7.0,59,0.00,OVC,,0.00,WeatherDisplay:10.37,2013-03-01 21:50:00,
2013-03-01 16:56:00,38.0,24.5,29.85,NW,317,2.7,6.9,58,0.00,OVC,,0.00,WeatherDisplay:10.37,2013-03-01 21:56:00,
2013-03-01 17:01:00,38.0,24.5,29.86,North,4,2.5,9.2,58,0.00,OVC,,0.00,WeatherDisplay:10.37,2013-03-01 22:01:00,
2013-03-01 17:06:00,38.0,24.5,29.86,North,355,2.8,10.0,58,0.00,OVC,,0.00,WeatherDisplay:10.37,2013-03-01 22:06:00,
2013-03-01 17:11:00,38.0,24.5,29.86,North,7,1.1,3.5,58,0.00,OVC,,0.00,WeatherDisplay:10.37,2013-03-01 22:11:00,
2013-03-01 17:17:00,37.9,24.4,29.86,North,350,1.8,4.0,58,0.00,OVC,,0.00,WeatherDisplay:10.37,2013-03-01 22:17:00,
2013-03-01 17:22:00,37.9,24.8,29.86,NNW,338,1.4,2.3,59,0.00,OVC,,0.00,WeatherDisplay:10.37,2013-03-01 22:22:00,
2013-03-01 17:27:00,37.9,24.8,29.86,NNE,27,1.8,4.6,59,0.00,OVC,,0.00,WeatherDisplay:10.37,2013-03-01 22:27:00,
2013-03-01 17:32:00,37.9,24.8,29.86,NNW,340,1.0,2.0,59,0.00,OVC,,0.00,WeatherDisplay:10.37,2013-03-01 22:32:00,
2013-03-01 17:37:00,37.8,24.3,29.86,North,352,3.4,5.0,58,0.00,OVC,,0.00,WeatherDisplay:10.37,2013-03-01 22:37:00,
2013-03-01 17:42:00,37.7,24.2,29.86,NW,323,1.4,3.5,58,0.00,OVC,,0.00,WeatherDisplay:10.37,2013-03-01 22:42:00,
2013-03-01 17:47:00,37.7,24.2,29.86,NE,55,2.8,4.0,58,0.00,OVC,,0.00,WeatherDisplay:10.37,2013-03-01 22:47:00,
2013-03-01 17:52:00,37.7,24.2,29.86,NNW,336,0.9,2.3,58,0.00,OVC,,0.00,WeatherDisplay:10.37,2013-03-01 22:52:00,
2013-03-01 17:57:00,37.7,23.8,29.86,SSE,149,1.7,5.8,57,0.00,OVC,,0.00,WeatherDisplay:10.37,2013-03-01 22:57:00,
2013-03-01 18:02:00,37.6,24.1,29.87,WNW,300,1.9,3.5,58,0.00,OVC,,0.00,WeatherDisplay:10.37,2013-03-01 23:02:00,
2013-03-01 18:07:00,37.6,24.1,29.87,North,360,0.9,2.3,58,0.00,OVC,,0.00,WeatherDisplay:10.37,2013-03-01 23:07:00,
2013-03-01 18:12:00,37.5,24.1,29.87,North,355,0.8,3.5,58,0.00,OVC,,0.00,WeatherDisplay:10.37,2013-03-01 23:12:00,
2013-03-01 18:17:00,37.5,24.1,29.87,NW,323,0.2,2.3,58,0.00,OVC,,0.00,WeatherDisplay:10.37,2013-03-01 23:17:00,
2013-03-01 18:22:00,37.5,24.1,29.88,NNW,333,1.6,3.5,58,0.00,OVC,,0.00,WeatherDisplay:10.37,2013-03-01 23:22:00,
2013-03-01 18:28:00,37.5,24.1,29.88,NNW,335,1.4,2.3,58,0.00,OVC,,0.00,WeatherDisplay:10.37,2013-03-01 23:28:00,
2013-03-01 18:33:00,37.4,24.4,29.88,SW,233,1.5,3.5,59,0.00,OVC,,0.00,WeatherDisplay:10.37,2013-03-01 23:33:00,
2013-03-01 18:38:00,37.4,24.0,29.88,NW,311,0.0,2.3,58,0.00,OVC,,0.00,WeatherDisplay:10.37,2013-03-01 23:38:00,
2013-03-01 18:43:00,37.3,23.9,29.89,NE,35,1.3,2.3,58,0.00,OVC,,0.00,WeatherDisplay:10.37,2013-03-01 23:43:00,
2013-03-01 18:49:00,37.3,23.9,29.89,NNW,339,0.1,1.1,58,0.00,OVC,,0.00,WeatherDisplay:10.37,2013-03-01 23:49:00,
2013-03-01 18:54:00,37.3,23.9,29.89,NW,325,2.3,7.0,58,0.00,OVC,,0.00,WeatherDisplay:10.37,2013-03-01 23:54:00,
2013-03-01 18:59:00,37.3,23.9,29.89,NW,308,1.4,3.0,58,0.00,OVC,,0.00,WeatherDisplay:10.37,2013-03-01 23:59:00,
2013-03-01 19:04:00,37.3,24.3,29.89,North,354,0.3,1.1,59,0.00,OVC,,0.00,WeatherDisplay:10.37,2013-03-02 00:04:00,
2013-03-01 19:09:00,37.3,23.9,29.89,North,352,1.0,3.0,58,0.00,OVC,,0.00,WeatherDisplay:10.37,2013-03-02 00:09:00,
2013-03-01 19:14:00,37.2,24.2,29.89,NNW,340,0.0,2.3,59,0.00,OVC,,0.00,WeatherDisplay:10.37,2013-03-02 00:14:00,
2013-03-01 19:19:00,37.2,23.8,29.89,North,5,1.7,3.5,58,0.00,OVC,,0.00,WeatherDisplay:10.37,2013-03-02 00:19:00,
2013-03-01 19:24:00,37.2,24.2,29.89,NNW,343,0.1,1.1,59,0.00,OVC,,0.00,WeatherDisplay:10.37,2013-03-02 00:24:00,
2013-03-01 19:29:00,37.1,24.1,29.90,NNW,335,0.9,2.3,59,0.00,OVC,,0.00,WeatherDisplay:10.37,2013-03-02 00:29:00,
2013-03-01 19:34:00,37.1,24.1,29.90,NNW,333,0.0,1.1,59,0.00,OVC,,0.00,WeatherDisplay:10.37,2013-03-02 00:34:00,
2013-03-01 19:39:00,37.1,24.1,29.90,North,352,1.1,3.5,59,0.00,OVC,,0.00,WeatherDisplay:10.37,2013-03-02 00:39:00,
2013-03-01 19:44:00,37.1,24.1,29.90,South,189,2.4,4.0,59,0.00,OVC,,0.00,WeatherDisplay:10.37,2013-03-02 00:44:00,
2013-03-01 19:49:00,37.2,24.2,29.90,NW,325,1.4,4.6,59,0.00,OVC,,0.00,WeatherDisplay:10.37,2013-03-02 00:49:00,
2013-03-01 19:54:00,37.1,24.1,29.90,North,354,1.2,3.5,59,0.00,OVC,,0.00,WeatherDisplay:10.37,2013-03-02 00:54:00,
2013-03-01 19:59:00,37.1,24.5,29.90,WSW,240,1.0,2.0,60,0.00,OVC,,0.00,WeatherDisplay:10.37,2013-03-02 00:59:00,
2013-03-01 20:04:00,37.1,24.5,29.90,NNE,33,1.7,4.0,60,0.00,OVC,,0.00,WeatherDisplay:10.37,2013-03-02 01:04:00,
2013-03-01 20:09:00,36.9,24.3,29.89,NNW,344,0.0,0.0,60,0.00,OVC,,0.00,WeatherDisplay:10.37,2013-03-02 01:09:00,
2013-03-01 20:15:00,36.9,24.7,29.89,WSW,246,0.0,0.0,61,0.00,OVC,,0.00,WeatherDisplay:10.37,2013-03-02 01:15:00,
2013-03-01 20:20:00,36.8,24.2,29.90,WNW,300,1.9,5.8,60,0.00,OVC,,0.00,WeatherDisplay:10.37,2013-03-02 01:20:00,
2013-03-01 20:25:00,36.8,24.2,29.90,NW,305,1.4,4.6,60,0.00,OVC,,0.00,WeatherDisplay:10.37,2013-03-02 01:25:00,
2013-03-01 20:30:00,36.8,24.2,29.90,NW,304,0.5,1.1,60,0.00,OVC,,0.00,WeatherDisplay:10.37,2013-03-02 01:30:00,
2013-03-01 20:35:00,36.8,24.6,29.90,NW,310,0.6,3.5,61,0.00,OVC,,0.00,WeatherDisplay:10.37,2013-03-02 01:35:00,
2013-03-01 20:40:00,36.8,24.6,29.90,NNW,338,1.7,4.0,61,0.00,OVC,,0.00,WeatherDisplay:10.37,2013-03-02 01:40:00,
2013-03-01 20:45:00,36.7,24.5,29.89,NW,324,1.4,3.0,61,0.00,OVC,,0.00,WeatherDisplay:10.37,2013-03-02 01:45:00,
2013-03-01 20:50:00,36.7,24.9,29.89,NNW,342,0.6,2.0,62,0.00,OVC,,0.00,WeatherDisplay:10.37,2013-03-02 01:50:00,
2013-03-01 20:55:00,36.6,24.4,29.90,North,352,0.6,1.1,61,0.00,OVC,,0.00,WeatherDisplay:10.37,2013-03-02 01:55:00,
2013-03-01 21:00:00,36.6,24.8,29.90,WNW,294,0.3,3.0,62,0.00,OVC,,0.00,WeatherDisplay:10.37,2013-03-02 02:00:00,
2013-03-01 21:05:00,36.5,24.7,29.90,WNW,302,1.0,2.3,62,0.00,OVC,,0.00,WeatherDisplay:10.37,2013-03-02 02:05:00,
2013-03-01 21:10:00,36.6,25.2,29.90,WSW,239,0.2,2.3,63,0.00,OVC,,0.00,WeatherDisplay:10.37,2013-03-02 02:10:00,
2013-03-01 21:15:00,36.6,24.8,29.90,North,349,0.6,3.5,62,0.00,OVC,,0.00,WeatherDisplay:10.37,2013-03-02 02:15:00,
2013-03-01 21:20:00,36.5,24.7,29.90,NW,305,0.4,2.3,62,0.00,OVC,,0.00,WeatherDisplay:10.37,2013-03-02 02:20:00,
2013-03-01 21:25:00,36.6,25.2,29.90,NW,311,0.2,2.3,63,0.00,OVC,,0.00,WeatherDisplay:10.37,2013-03-02 02:25:00,
2013-03-01 21:30:00,36.5,25.1,29.90,West,264,1.1,2.3,63,0.00,OVC,,0.00,WeatherDisplay:10.37,2013-03-02 02:30:00,
2013-03-01 21:35:00,36.5,25.1,29.90,WSW,240,1.0,3.5,63,0.00,OVC,,0.00,WeatherDisplay:10.37,2013-03-02 02:35:00,
2013-03-01 21:40:00,36.4,25.0,29.90,WSW,249,0.0,2.0,63,0.00,OVC,,0.00,WeatherDisplay:10.37,2013-03-02 02:40:00,
2013-03-01 21:45:00,36.4,25.0,29.90,SW,229,0.4,2.3,63,0.00,OVC,,0.00,WeatherDisplay:10.37,2013-03-02 02:45:00,
2013-03-01 21:50:00,36.4,24.6,29.90,WNW,284,1.0,2.0,62,0.00,OVC,,0.00,WeatherDisplay:10.37,2013-03-02 02:50:00,
2013-03-01 21:55:00,36.4,24.6,29.90,North,349,1.9,4.6,62,0.00,OVC,,0.00,WeatherDisplay:10.37,2013-03-02 02:55:00,
2013-03-01 22:00:00,36.4,24.6,29.90,NW,320,1.2,2.3,62,0.00,OVC,,0.00,WeatherDisplay:10.37,2013-03-02 03:00:00,
2013-03-01 22:05:00,36.4,24.6,29.89,East,97,3.4,5.8,62,0.00,OVC,,0.00,WeatherDisplay:10.37,2013-03-02 03:05:00,
2013-03-01 22:10:00,36.4,24.6,29.90,NW,315,0.7,3.5,62,0.00,OVC,,0.00,WeatherDisplay:10.37,2013-03-02 03:10:00,
2013-03-01 22:15:00,36.4,24.6,29.90,WNW,297,1.1,4.0,62,0.00,OVC,,0.00,WeatherDisplay:10.37,2013-03-02 03:15:00,
2013-03-01 22:20:00,36.4,24.6,29.90,North,1,0.9,3.5,62,0.00,BKN,,0.00,WeatherDisplay:10.37,2013-03-02 03:20:00,
2013-03-01 22:25:00,36.4,24.6,29.90,SSW,198,1.2,4.0,62,0.00,BKN,,0.00,WeatherDisplay:10.37,2013-03-02 03:25:00,
2013-03-01 22:31:00,36.3,24.5,29.90,North,11,0.4,1.0,62,0.00,BKN,,0.00,WeatherDisplay:10.37,2013-03-02 03:31:00,
2013-03-01 22:36:00,36.3,24.5,29.90,WNW,300,0.5,1.1,62,0.00,BKN,,0.00,WeatherDisplay:10.37,2013-03-02 03:36:00,
2013-03-01 22:41:00,36.2,24.4,29.90,NW,325,1.2,4.0,62,0.00,BKN,,0.00,WeatherDisplay:10.37,2013-03-02 03:41:00,
2013-03-01 22:46:00,36.2,24.0,29.90,NNW,330,0.5,3.5,61,0.00,BKN,,0.00,WeatherDisplay:10.37,2013-03-02 03:46:00,
2013-03-01 22:51:00,36.2,24.0,29.90,NW,323,1.4,3.5,61,0.00,BKN,,0.00,WeatherDisplay:10.37,2013-03-02 03:51:00,
2013-03-01 22:56:00,36.1,23.9,29.91,WNW,287,2.0,4.0,61,0.00,BKN,,0.00,WeatherDisplay:10.37,2013-03-02 03:56:00,
2013-03-01 23:01:00,36.1,23.9,29.90,NNW,337,1.5,2.3,61,0.00,BKN,,0.00,WeatherDisplay:10.37,2013-03-02 04:01:00,
2013-03-01 23:06:00,36.1,24.3,29.90,NW,323,0.0,2.3,62,0.00,OVC,,0.00,WeatherDisplay:10.37,2013-03-02 04:06:00,
2013-03-01 23:11:00,36.0,24.2,29.90,NW,326,0.8,3.5,62,0.00,OVC,,0.00,WeatherDisplay:10.37,2013-03-02 04:11:00,
2013-03-01 23:17:00,35.9,24.5,29.90,North,6,0.9,3.0,63,0.00,OVC,,0.00,WeatherDisplay:10.37,2013-03-02 04:17:00,
2013-03-01 23:22:00,35.9,24.5,29.90,NW,322,1.9,3.5,63,0.00,OVC,,0.00,WeatherDisplay:10.37,2013-03-02 04:22:00,
2013-03-01 23:27:00,35.9,24.5,29.90,NNW,337,1.4,3.5,63,0.00,OVC,,0.00,WeatherDisplay:10.37,2013-03-02 04:27:00,
2013-03-01 23:32:00,35.9,24.5,29.90,North,350,1.3,2.3,63,0.00,OVC,,0.00,WeatherDisplay:10.37,2013-03-02 04:32:00,
2013-03-01 23:37:00,35.8,24.4,29.91,WNW,293,1.6,5.0,63,0.00,OVC,,0.00,WeatherDisplay:10.37,2013-03-02 04:37:00,
2013-03-01 23:42:00,35.7,24.3,29.90,NNE,18,0.4,2.3,63,0.00,OVC,,0.00,WeatherDisplay:10.37,2013-03-02 04:42:00,
2013-03-01 23:47:00,35.7,24.7,29.90,North,352,1.7,3.5,64,0.00,OVC,,0.00,WeatherDisplay:10.37,2013-03-02 04:47:00,
2013-03-01 23:52:00,35.6,24.6,29.89,North,5,0.1,1.1,64,0.00,OVC,,0.00,WeatherDisplay:10.37,2013-03-02 04:52:00,
2013-03-01 23:57:00,35.5,24.5,29.89,North,3,0.9,3.0,64,0.00,OVC,,0.00,WeatherDisplay:10.37,2013-03-02 04:57:00,